sensor_id;sensor_type;location;lat;lon;timestamp;pressure;altitude;pressure_sealevel;temperature;humidity
46756;BME280;32506;52.826;-1.192;2024-01-15T00:00:40;100436.50;;;0.18;63.91
46756;BME280;32506;52.826;-1.192;2024-01-15T00:03:05;100428.94;;;0.15;64.02
46756;BME280;32506;52.826;-1.192;2024-01-15T00:05:31;100438.75;;;0.13;64.13
46756;BME280;32506;52.826;-1.192;2024-01-15T00:07:56;100434.63;;;0.10;63.91
46756;BME280;32506;52.826;-1.192;2024-01-15T00:10:23;100422.59;;;0.08;63.78
46756;BME280;32506;52.826;-1.192;2024-01-15T00:12:48;100416.69;;;0.06;63.98
46756;BME280;32506;52.826;-1.192;2024-01-15T00:15:14;100419.56;;;0.03;63.71
46756;BME280;32506;52.826;-1.192;2024-01-15T00:17:40;100418.09;;;0.00;63.57
46756;BME280;32506;52.826;-1.192;2024-01-15T00:20:06;100416.59;;;-0.03;63.59
46756;BME280;32506;52.826;-1.192;2024-01-15T00:22:31;100403.72;;;-0.06;63.65
46756;BME280;32506;52.826;-1.192;2024-01-15T00:24:57;100405.69;;;-0.08;63.72
46756;BME280;32506;52.826;-1.192;2024-01-15T00:27:23;100400.59;;;-0.09;63.88
46756;BME280;32506;52.826;-1.192;2024-01-15T00:29:49;100404.34;;;-0.12;63.63
46756;BME280;32506;52.826;-1.192;2024-01-15T00:32:16;100395.91;;;-0.15;63.91
46756;BME280;32506;52.826;-1.192;2024-01-15T00:34:41;100396.88;;;-0.17;63.41
46756;BME280;32506;52.826;-1.192;2024-01-15T00:37:06;100391.22;;;-0.22;63.60
46756;BME280;32506;52.826;-1.192;2024-01-15T00:39:32;100385.31;;;-0.24;63.64
46756;BME280;32506;52.826;-1.192;2024-01-15T00:41:58;100398.75;;;-0.27;63.76
46756;BME280;32506;52.826;-1.192;2024-01-15T00:44:23;100393.78;;;-0.30;63.20
46756;BME280;32506;52.826;-1.192;2024-01-15T00:46:48;100396.69;;;-0.33;63.29
46756;BME280;32506;52.826;-1.192;2024-01-15T00:49:14;100397.00;;;-0.36;63.31
46756;BME280;32506;52.826;-1.192;2024-01-15T00:51:39;100393.69;;;-0.38;63.57
46756;BME280;32506;52.826;-1.192;2024-01-15T00:54:05;100395.91;;;-0.43;63.29
46756;BME280;32506;52.826;-1.192;2024-01-15T00:56:31;100395.25;;;-0.45;63.58
46756;BME280;32506;52.826;-1.192;2024-01-15T00:58:56;100396.34;;;-0.48;63.52
46756;BME280;32506;52.826;-1.192;2024-01-15T01:01:21;100394.03;;;-0.51;63.40
46756;BME280;32506;52.826;-1.192;2024-01-15T01:03:47;100395.16;;;-0.54;63.40
46756;BME280;32506;52.826;-1.192;2024-01-15T01:06:12;100391.81;;;-0.56;63.35
46756;BME280;32506;52.826;-1.192;2024-01-15T01:08:39;100393.91;;;-0.59;63.51
46756;BME280;32506;52.826;-1.192;2024-01-15T01:11:05;100393.25;;;-0.61;63.32
46756;BME280;32506;52.826;-1.192;2024-01-15T01:13:32;100389.09;;;-0.64;63.65
46756;BME280;32506;52.826;-1.192;2024-01-15T01:15:57;100384.16;;;-0.67;63.56
46756;BME280;32506;52.826;-1.192;2024-01-15T01:18:23;100389.66;;;-0.70;63.53
46756;BME280;32506;52.826;-1.192;2024-01-15T01:20:49;100386.38;;;-0.72;63.23
46756;BME280;32506;52.826;-1.192;2024-01-15T01:23:14;100384.00;;;-0.75;63.48
46756;BME280;32506;52.826;-1.192;2024-01-15T01:25:39;100385.16;;;-0.78;63.21
46756;BME280;32506;52.826;-1.192;2024-01-15T01:28:05;100394.13;;;-0.80;63.24
46756;BME280;32506;52.826;-1.192;2024-01-15T01:30:30;100382.13;;;-0.83;63.25
46756;BME280;32506;52.826;-1.192;2024-01-15T01:32:56;100388.50;;;-0.86;63.50
46756;BME280;32506;52.826;-1.192;2024-01-15T01:35:22;100384.34;;;-0.88;63.66
46756;BME280;32506;52.826;-1.192;2024-01-15T01:37:47;100374.97;;;-0.91;63.35
46756;BME280;32506;52.826;-1.192;2024-01-15T01:40:13;100366.41;;;-0.93;63.24
46756;BME280;32506;52.826;-1.192;2024-01-15T01:42:38;100365.88;;;-0.96;63.54
46756;BME280;32506;52.826;-1.192;2024-01-15T01:45:04;100369.47;;;-0.97;63.82
46756;BME280;32506;52.826;-1.192;2024-01-15T01:47:30;100366.13;;;-0.99;63.48
46756;BME280;32506;52.826;-1.192;2024-01-15T01:49:55;100365.31;;;-1.00;63.47
46756;BME280;32506;52.826;-1.192;2024-01-15T01:52:21;100362.16;;;-1.04;63.56
46756;BME280;32506;52.826;-1.192;2024-01-15T01:54:47;100351.81;;;-1.05;63.74
46756;BME280;32506;52.826;-1.192;2024-01-15T01:57:13;100357.19;;;-1.07;63.55
46756;BME280;32506;52.826;-1.192;2024-01-15T01:59:40;100353.75;;;-1.07;63.87
46756;BME280;32506;52.826;-1.192;2024-01-15T02:02:06;100350.44;;;-1.09;63.59
46756;BME280;32506;52.826;-1.192;2024-01-15T02:04:32;100353.22;;;-1.11;63.63
46756;BME280;32506;52.826;-1.192;2024-01-15T02:06:59;100349.06;;;-1.13;63.85
46756;BME280;32506;52.826;-1.192;2024-01-15T02:09:25;100355.28;;;-1.14;63.99
46756;BME280;32506;52.826;-1.192;2024-01-15T02:11:50;100352.81;;;-1.16;63.68
46756;BME280;32506;52.826;-1.192;2024-01-15T02:14:16;100361.78;;;-1.19;63.72
46756;BME280;32506;52.826;-1.192;2024-01-15T02:16:42;100357.50;;;-1.20;63.58
46756;BME280;32506;52.826;-1.192;2024-01-15T02:19:07;100370.75;;;-1.21;63.81
46756;BME280;32506;52.826;-1.192;2024-01-15T02:21:39;100364.84;;;-1.23;63.82
46756;BME280;32506;52.826;-1.192;2024-01-15T02:24:05;100365.94;;;-1.26;63.67
46756;BME280;32506;52.826;-1.192;2024-01-15T02:26:30;100367.72;;;-1.26;64.17
46756;BME280;32506;52.826;-1.192;2024-01-15T02:28:56;100360.00;;;-1.28;64.12
46756;BME280;32506;52.826;-1.192;2024-01-15T02:31:21;100361.09;;;-1.30;63.91
46756;BME280;32506;52.826;-1.192;2024-01-15T02:33:47;100354.22;;;-1.31;63.92
46756;BME280;32506;52.826;-1.192;2024-01-15T02:36:12;100357.81;;;-1.32;64.14
46756;BME280;32506;52.826;-1.192;2024-01-15T02:38:38;100367.59;;;-1.35;64.11
46756;BME280;32506;52.826;-1.192;2024-01-15T02:41:03;100354.63;;;-1.36;64.04
46756;BME280;32506;52.826;-1.192;2024-01-15T02:43:29;100360.03;;;-1.38;64.35
46756;BME280;32506;52.826;-1.192;2024-01-15T02:45:54;100354.94;;;-1.39;64.07
46756;BME280;32506;52.826;-1.192;2024-01-15T02:48:20;100358.38;;;-1.39;64.08
46756;BME280;32506;52.826;-1.192;2024-01-15T02:50:45;100357.69;;;-1.41;64.20
46756;BME280;32506;52.826;-1.192;2024-01-15T02:53:11;100363.09;;;-1.42;64.41
46756;BME280;32506;52.826;-1.192;2024-01-15T02:55:36;100366.66;;;-1.43;64.34
46756;BME280;32506;52.826;-1.192;2024-01-15T02:58:03;100351.88;;;-1.44;64.29
46756;BME280;32506;52.826;-1.192;2024-01-15T03:00:28;100346.78;;;-1.46;64.33
46756;BME280;32506;52.826;-1.192;2024-01-15T03:02:54;100340.72;;;-1.46;64.44
46756;BME280;32506;52.826;-1.192;2024-01-15T03:05:19;100340.84;;;-1.48;64.49
46756;BME280;32506;52.826;-1.192;2024-01-15T03:07:45;100341.84;;;-1.49;64.61
46756;BME280;32506;52.826;-1.192;2024-01-15T03:10:11;100338.38;;;-1.49;64.68
46756;BME280;32506;52.826;-1.192;2024-01-15T03:12:36;100334.09;;;-1.50;64.59
46756;BME280;32506;52.826;-1.192;2024-01-15T03:15:02;100343.75;;;-1.51;64.47
46756;BME280;32506;52.826;-1.192;2024-01-15T03:17:27;100344.72;;;-1.52;64.75
46756;BME280;32506;52.826;-1.192;2024-01-15T03:19:53;100348.44;;;-1.55;64.79
46756;BME280;32506;52.826;-1.192;2024-01-15T03:22:18;100345.97;;;-1.56;65.15
46756;BME280;32506;52.826;-1.192;2024-01-15T03:24:44;100363.34;;;-1.55;64.73
46756;BME280;32506;52.826;-1.192;2024-01-15T03:27:10;100354.78;;;-1.57;64.81
46756;BME280;32506;52.826;-1.192;2024-01-15T03:29:35;100358.41;;;-1.58;64.77
46756;BME280;32506;52.826;-1.192;2024-01-15T03:32:00;100358.41;;;-1.58;64.77
46756;BME280;32506;52.826;-1.192;2024-01-15T03:34:26;100362.94;;;-1.60;64.78
46756;BME280;32506;52.826;-1.192;2024-01-15T03:36:51;100343.78;;;-1.61;64.90
46756;BME280;32506;52.826;-1.192;2024-01-15T03:39:17;100351.63;;;-1.61;64.79
46756;BME280;32506;52.826;-1.192;2024-01-15T03:41:42;100349.16;;;-1.62;64.93
46756;BME280;32506;52.826;-1.192;2024-01-15T03:44:08;100350.13;;;-1.63;64.87
46756;BME280;32506;52.826;-1.192;2024-01-15T03:46:33;100345.84;;;-1.64;64.79
46756;BME280;32506;52.826;-1.192;2024-01-15T03:48:58;100347.66;;;-1.65;64.89
46756;BME280;32506;52.826;-1.192;2024-01-15T03:51:24;100346.78;;;-1.65;64.91
46756;BME280;32506;52.826;-1.192;2024-01-15T03:53:50;100349.41;;;-1.65;64.91
46756;BME280;32506;52.826;-1.192;2024-01-15T03:56:15;100350.41;;;-1.66;64.80
46756;BME280;32506;52.826;-1.192;2024-01-15T03:58:40;100346.28;;;-1.69;64.74
46756;BME280;32506;52.826;-1.192;2024-01-15T04:01:10;100340.19;;;-1.70;64.84
46756;BME280;32506;52.826;-1.192;2024-01-15T04:03:35;100347.22;;;-1.70;64.90
46756;BME280;32506;52.826;-1.192;2024-01-15T04:06:01;100342.13;;;-1.72;64.84
46756;BME280;32506;52.826;-1.192;2024-01-15T04:08:26;100340.31;;;-1.71;64.80
46756;BME280;32506;52.826;-1.192;2024-01-15T04:10:52;100343.09;;;-1.73;64.63
46756;BME280;32506;52.826;-1.192;2024-01-15T04:13:17;100339.75;;;-1.75;64.54
46756;BME280;32506;52.826;-1.192;2024-01-15T04:15:43;100342.53;;;-1.76;64.73
46756;BME280;32506;52.826;-1.192;2024-01-15T04:18:08;100338.25;;;-1.77;64.53
46756;BME280;32506;52.826;-1.192;2024-01-15T04:20:34;100340.19;;;-1.79;64.47
46756;BME280;32506;52.826;-1.192;2024-01-15T04:22:59;100342.00;;;-1.80;64.47
46756;BME280;32506;52.826;-1.192;2024-01-15T04:25:24;100342.97;;;-1.81;64.49
46756;BME280;32506;52.826;-1.192;2024-01-15T04:27:50;100345.72;;;-1.82;64.58
46756;BME280;32506;52.826;-1.192;2024-01-15T04:30:15;100336.19;;;-1.83;64.35
46756;BME280;32506;52.826;-1.192;2024-01-15T04:32:41;100338.13;;;-1.86;64.42
46756;BME280;32506;52.826;-1.192;2024-01-15T04:35:07;100333.00;;;-1.87;64.43
46756;BME280;32506;52.826;-1.192;2024-01-15T04:37:32;100333.97;;;-1.88;64.37
46756;BME280;32506;52.826;-1.192;2024-01-15T04:39:57;100328.88;;;-1.90;64.51
46756;BME280;32506;52.826;-1.192;2024-01-15T04:42:23;100324.59;;;-1.91;64.28
46756;BME280;32506;52.826;-1.192;2024-01-15T04:44:48;100325.59;;;-1.92;64.49
46756;BME280;32506;52.826;-1.192;2024-01-15T04:47:14;100327.34;;;-1.92;64.45
46756;BME280;32506;52.826;-1.192;2024-01-15T04:49:40;100331.94;;;-1.94;64.34
46756;BME280;32506;52.826;-1.192;2024-01-15T04:52:05;100332.06;;;-1.96;64.24
46756;BME280;32506;52.826;-1.192;2024-01-15T04:54:30;100327.78;;;-1.97;64.37
46756;BME280;32506;52.826;-1.192;2024-01-15T04:56:56;100323.38;;;-1.96;64.38
46756;BME280;32506;52.826;-1.192;2024-01-15T04:59:21;100322.69;;;-1.98;64.39
46756;BME280;32506;52.826;-1.192;2024-01-15T05:01:47;100321.03;;;-1.99;64.34
46756;BME280;32506;52.826;-1.192;2024-01-15T05:04:14;100309.84;;;-2.02;64.34
46756;BME280;32506;52.826;-1.192;2024-01-15T05:06:39;100321.31;;;-2.03;64.42
46756;BME280;32506;52.826;-1.192;2024-01-15T05:09:05;100324.06;;;-2.04;64.37
46756;BME280;32506;52.826;-1.192;2024-01-15T05:11:30;100326.69;;;-2.04;64.58
46756;BME280;32506;52.826;-1.192;2024-01-15T05:13:55;100312.88;;;-2.06;64.34
46756;BME280;32506;52.826;-1.192;2024-01-15T05:16:21;100320.75;;;-2.06;64.63
46756;BME280;32506;52.826;-1.192;2024-01-15T05:18:46;100320.03;;;-2.08;64.46
46756;BME280;32506;52.826;-1.192;2024-01-15T05:21:12;100315.78;;;-2.09;64.25
46756;BME280;32506;52.826;-1.192;2024-01-15T05:23:37;100318.56;;;-2.11;64.22
46756;BME280;32506;52.826;-1.192;2024-01-15T05:26:03;100315.94;;;-2.11;64.35
46756;BME280;32506;52.826;-1.192;2024-01-15T05:28:29;100319.50;;;-2.12;64.29
46756;BME280;32506;52.826;-1.192;2024-01-15T05:30:54;100315.38;;;-2.14;64.22
46756;BME280;32506;52.826;-1.192;2024-01-15T05:33:21;100329.28;;;-2.14;64.47
46756;BME280;32506;52.826;-1.192;2024-01-15T05:35:47;100318.13;;;-2.16;64.50
46756;BME280;32506;52.826;-1.192;2024-01-15T05:38:12;100313.84;;;-2.17;64.26
46756;BME280;32506;52.826;-1.192;2024-01-15T05:40:38;100328.75;;;-2.17;64.34
46756;BME280;32506;52.826;-1.192;2024-01-15T05:43:03;100324.47;;;-2.18;64.34
46756;BME280;32506;52.826;-1.192;2024-01-15T05:45:30;100324.59;;;-2.20;64.40
46756;BME280;32506;52.826;-1.192;2024-01-15T05:47:55;100323.75;;;-2.21;64.59
46756;BME280;32506;52.826;-1.192;2024-01-15T05:50:21;100319.47;;;-2.22;64.34
46756;BME280;32506;52.826;-1.192;2024-01-15T05:52:47;100313.44;;;-2.22;64.14
46756;BME280;32506;52.826;-1.192;2024-01-15T05:55:12;100316.19;;;-2.24;64.38
46756;BME280;32506;52.826;-1.192;2024-01-15T05:57:38;100307.50;;;-2.24;64.05
46756;BME280;32506;52.826;-1.192;2024-01-15T06:00:04;100316.47;;;-2.27;64.18
46756;BME280;32506;52.826;-1.192;2024-01-15T06:02:30;100325.13;;;-2.26;64.06
46756;BME280;32506;52.826;-1.192;2024-01-15T06:04:55;100321.69;;;-2.27;64.36
46756;BME280;32506;52.826;-1.192;2024-01-15T06:07:21;100317.41;;;-2.28;64.28
46756;BME280;32506;52.826;-1.192;2024-01-15T06:09:48;100318.38;;;-2.29;64.33
46756;BME280;32506;52.826;-1.192;2024-01-15T06:12:13;100311.47;;;-2.30;64.25
46756;BME280;32506;52.826;-1.192;2024-01-15T06:14:38;100315.09;;;-2.31;64.59
46756;BME280;32506;52.826;-1.192;2024-01-15T06:17:04;100315.91;;;-2.30;64.29
46756;BME280;32506;52.826;-1.192;2024-01-15T06:19:29;100321.28;;;-2.32;64.49
46756;BME280;32506;52.826;-1.192;2024-01-15T06:21:55;100324.03;;;-2.33;64.53
46756;BME280;32506;52.826;-1.192;2024-01-15T06:24:20;100325.00;;;-2.34;64.49
46756;BME280;32506;52.826;-1.192;2024-01-15T06:26:49;100338.06;;;-2.34;64.35
46756;BME280;32506;52.826;-1.192;2024-01-15T06:29:14;100327.59;;;-2.34;64.27
46756;BME280;32506;52.826;-1.192;2024-01-15T06:31:40;100332.00;;;-2.35;64.62
46756;BME280;32506;52.826;-1.192;2024-01-15T06:34:05;100340.13;;;-2.38;64.31
46756;BME280;32506;52.826;-1.192;2024-01-15T06:36:30;100332.28;;;-2.38;64.61
46756;BME280;32506;52.826;-1.192;2024-01-15T06:38:56;100345.38;;;-2.38;64.59
46756;BME280;32506;52.826;-1.192;2024-01-15T06:41:21;100341.09;;;-2.39;64.60
46756;BME280;32506;52.826;-1.192;2024-01-15T06:43:48;100340.41;;;-2.41;64.46
46756;BME280;32506;52.826;-1.192;2024-01-15T06:46:22;100344.81;;;-2.42;64.55
46756;BME280;32506;52.826;-1.192;2024-01-15T06:48:48;100351.81;;;-2.42;64.40
46756;BME280;32506;52.826;-1.192;2024-01-15T06:51:14;100352.69;;;-2.42;64.62
46756;BME280;32506;52.826;-1.192;2024-01-15T06:53:39;100358.88;;;-2.43;64.76
46756;BME280;32506;52.826;-1.192;2024-01-15T06:56:04;100365.06;;;-2.44;64.58
46756;BME280;32506;52.826;-1.192;2024-01-15T06:58:33;100372.91;;;-2.44;64.62
46756;BME280;32506;52.826;-1.192;2024-01-15T07:00:59;100375.53;;;-2.44;64.39
46756;BME280;32506;52.826;-1.192;2024-01-15T07:03:25;100376.34;;;-2.43;64.72
46756;BME280;32506;52.826;-1.192;2024-01-15T07:05:50;100376.34;;;-2.43;64.74
46756;BME280;32506;52.826;-1.192;2024-01-15T07:08:16;100372.09;;;-2.44;64.89
46756;BME280;32506;52.826;-1.192;2024-01-15T07:10:41;100372.09;;;-2.44;64.74
46756;BME280;32506;52.826;-1.192;2024-01-15T07:13:07;100372.09;;;-2.44;64.92
46756;BME280;32506;52.826;-1.192;2024-01-15T07:15:32;100377.31;;;-2.44;64.87
46756;BME280;32506;52.826;-1.192;2024-01-15T07:17:57;100380.75;;;-2.44;64.99
46756;BME280;32506;52.826;-1.192;2024-01-15T07:20:23;100376.47;;;-2.45;64.92
46756;BME280;32506;52.826;-1.192;2024-01-15T07:22:48;100375.53;;;-2.44;65.07
46756;BME280;32506;52.826;-1.192;2024-01-15T07:25:15;100382.56;;;-2.44;65.31
46756;BME280;32506;52.826;-1.192;2024-01-15T07:27:41;100385.19;;;-2.44;65.22
46756;BME280;32506;52.826;-1.192;2024-01-15T07:30:10;100387.78;;;-2.44;65.02
46756;BME280;32506;52.826;-1.192;2024-01-15T07:32:36;100386.81;;;-2.43;65.26
46756;BME280;32506;52.826;-1.192;2024-01-15T07:35:01;100388.63;;;-2.44;65.05
46756;BME280;32506;52.826;-1.192;2024-01-15T07:37:26;100398.13;;;-2.43;65.41
46756;BME280;32506;52.826;-1.192;2024-01-15T07:39:52;100405.03;;;-2.42;65.44
46756;BME280;32506;52.826;-1.192;2024-01-15T07:42:17;100401.44;;;-2.41;65.34
46756;BME280;32506;52.826;-1.192;2024-01-15T07:44:43;100398.81;;;-2.41;65.41
46756;BME280;32506;52.826;-1.192;2024-01-15T07:47:08;100396.06;;;-2.39;65.44
46756;BME280;32506;52.826;-1.192;2024-01-15T07:49:34;100397.72;;;-2.38;65.37
46756;BME280;32506;52.826;-1.192;2024-01-15T07:52:00;100406.41;;;-2.38;65.62
46756;BME280;32506;52.826;-1.192;2024-01-15T07:54:25;100406.41;;;-2.38;65.45
46756;BME280;32506;52.826;-1.192;2024-01-15T07:56:54;100402.00;;;-2.37;65.30
46756;BME280;32506;52.826;-1.192;2024-01-15T07:59:20;100407.09;;;-2.36;65.26
46756;BME280;32506;52.826;-1.192;2024-01-15T08:01:45;100412.31;;;-2.36;65.63
46756;BME280;32506;52.826;-1.192;2024-01-15T08:04:12;100410.41;;;-2.33;65.34
46756;BME280;32506;52.826;-1.192;2024-01-15T08:06:38;100408.63;;;-2.33;65.55
46756;BME280;32506;52.826;-1.192;2024-01-15T08:09:04;100416.34;;;-2.31;65.58
46756;BME280;32506;52.826;-1.192;2024-01-15T08:11:29;100422.41;;;-2.31;65.80
46756;BME280;32506;52.826;-1.192;2024-01-15T08:13:55;100418.00;;;-2.30;65.60
46756;BME280;32506;52.826;-1.192;2024-01-15T08:16:21;100421.31;;;-2.28;65.45
46756;BME280;32506;52.826;-1.192;2024-01-15T08:18:47;100404.78;;;-2.29;65.31
46756;BME280;32506;52.826;-1.192;2024-01-15T08:21:12;100405.34;;;-2.25;65.38
46756;BME280;32506;52.826;-1.192;2024-01-15T08:23:38;100402.72;;;-2.25;65.49
46756;BME280;32506;52.826;-1.192;2024-01-15T08:26:04;100407.81;;;-2.24;65.43
46756;BME280;32506;52.826;-1.192;2024-01-15T08:28:29;100418.97;;;-2.22;65.37
46756;BME280;32506;52.826;-1.192;2024-01-15T08:30:56;100421.59;;;-2.22;65.67
46756;BME280;32506;52.826;-1.192;2024-01-15T08:33:21;100427.53;;;-2.20;65.41
46756;BME280;32506;52.826;-1.192;2024-01-15T08:35:46;100434.44;;;-2.18;65.60
46756;BME280;32506;52.826;-1.192;2024-01-15T08:38:12;100431.69;;;-2.17;65.63
46756;BME280;32506;52.826;-1.192;2024-01-15T08:40:37;100443.69;;;-2.14;65.56
46756;BME280;32506;52.826;-1.192;2024-01-15T08:43:03;100447.13;;;-2.14;65.75
46756;BME280;32506;52.826;-1.192;2024-01-15T08:45:28;100452.22;;;-2.12;65.44
46756;BME280;32506;52.826;-1.192;2024-01-15T08:47:54;100462.59;;;-2.11;65.35
46756;BME280;32506;52.826;-1.192;2024-01-15T08:50:19;100471.13;;;-2.09;65.71
46756;BME280;32506;52.826;-1.192;2024-01-15T08:52:44;100467.56;;;-2.08;65.53
46756;BME280;32506;52.826;-1.192;2024-01-15T08:55:11;100469.91;;;-2.05;65.46
46756;BME280;32506;52.826;-1.192;2024-01-15T08:57:38;100479.28;;;-2.02;65.50
46756;BME280;32506;52.826;-1.192;2024-01-15T09:00:04;100480.94;;;-2.01;65.42
46756;BME280;32506;52.826;-1.192;2024-01-15T09:02:33;100484.94;;;-1.97;65.59
46756;BME280;32506;52.826;-1.192;2024-01-15T09:04:59;100478.75;;;-1.96;65.57
46756;BME280;32506;52.826;-1.192;2024-01-15T09:07:24;100486.47;;;-1.94;65.48
46756;BME280;32506;52.826;-1.192;2024-01-15T09:09:51;100478.34;;;-1.91;65.33
46756;BME280;32506;52.826;-1.192;2024-01-15T09:12:17;100488.69;;;-1.90;65.40
46756;BME280;32506;52.826;-1.192;2024-01-15T09:14:43;100490.22;;;-1.87;65.30
46756;BME280;32506;52.826;-1.192;2024-01-15T09:17:09;100494.34;;;-1.84;65.40
46756;BME280;32506;52.826;-1.192;2024-01-15T09:19:35;100496.69;;;-1.81;65.63
46756;BME280;32506;52.826;-1.192;2024-01-15T09:22:00;100506.94;;;-1.78;65.57
46756;BME280;32506;52.826;-1.192;2024-01-15T09:24:26;100507.47;;;-1.75;65.50
46756;BME280;32506;52.826;-1.192;2024-01-15T09:26:51;100508.03;;;-1.71;65.66
46756;BME280;32506;52.826;-1.192;2024-01-15T09:29:17;100518.97;;;-1.66;65.62
46756;BME280;32506;52.826;-1.192;2024-01-15T09:31:43;100527.25;;;-1.61;65.52
46756;BME280;32506;52.826;-1.192;2024-01-15T09:34:08;100525.72;;;-1.54;66.01
46756;BME280;32506;52.826;-1.192;2024-01-15T09:36:39;100530.31;;;-1.46;65.54
46756;BME280;32506;52.826;-1.192;2024-01-15T09:39:06;100524.38;;;-1.38;65.59
46756;BME280;32506;52.826;-1.192;2024-01-15T09:41:37;100516.53;;;-1.28;65.78
46756;BME280;32506;52.826;-1.192;2024-01-15T09:44:03;100532.13;;;-1.17;65.75
46756;BME280;32506;52.826;-1.192;2024-01-15T09:46:30;100523.97;;;-1.04;65.59
46756;BME280;32506;52.826;-1.192;2024-01-15T09:48:56;100519.00;;;-0.88;65.28
46756;BME280;32506;52.826;-1.192;2024-01-15T09:51:24;100522.97;;;-0.64;65.01
46756;BME280;32506;52.826;-1.192;2024-01-15T09:53:50;100521.50;;;-0.29;64.29
46756;BME280;32506;52.826;-1.192;2024-01-15T09:56:15;100511.06;;;0.17;63.81
46756;BME280;32506;52.826;-1.192;2024-01-15T09:58:41;100500.56;;;0.81;62.24
46756;BME280;32506;52.826;-1.192;2024-01-15T10:01:08;100503.75;;;1.55;60.36
46756;BME280;32506;52.826;-1.192;2024-01-15T10:03:34;100500.59;;;2.29;58.49
46756;BME280;32506;52.826;-1.192;2024-01-15T10:05:59;100508.63;;;2.95;56.75
46756;BME280;32506;52.826;-1.192;2024-01-15T10:08:25;100500.00;;;3.50;55.00
46756;BME280;32506;52.826;-1.192;2024-01-15T10:10:51;100506.50;;;3.88;54.31
46756;BME280;32506;52.826;-1.192;2024-01-15T10:13:17;100503.78;;;4.04;53.83
46756;BME280;32506;52.826;-1.192;2024-01-15T10:15:45;100504.94;;;4.10;53.51
46756;BME280;32506;52.826;-1.192;2024-01-15T10:18:12;100502.75;;;4.13;54.21
46756;BME280;32506;52.826;-1.192;2024-01-15T10:20:37;100514.66;;;4.17;54.17
46756;BME280;32506;52.826;-1.192;2024-01-15T10:23:03;100515.94;;;4.22;53.87
46756;BME280;32506;52.826;-1.192;2024-01-15T10:25:29;100513.66;;;4.18;54.56
46756;BME280;32506;52.826;-1.192;2024-01-15T10:28:03;100512.03;;;4.09;54.60
46756;BME280;32506;52.826;-1.192;2024-01-15T10:30:29;100524.00;;;3.97;54.99
46756;BME280;32506;52.826;-1.192;2024-01-15T10:32:59;100518.06;;;3.86;55.86
46756;BME280;32506;52.826;-1.192;2024-01-15T10:35:30;100512.50;;;3.73;56.21
46756;BME280;32506;52.826;-1.192;2024-01-15T10:37:55;100524.28;;;3.54;56.79
46756;BME280;32506;52.826;-1.192;2024-01-15T10:40:21;100520.66;;;3.39;57.58
46756;BME280;32506;52.826;-1.192;2024-01-15T10:42:47;100525.28;;;3.28;58.30
46756;BME280;32506;52.826;-1.192;2024-01-15T10:45:13;100531.41;;;3.21;58.82
46756;BME280;32506;52.826;-1.192;2024-01-15T10:47:40;100534.56;;;3.16;59.01
46756;BME280;32506;52.826;-1.192;2024-01-15T10:50:06;100532.91;;;3.15;59.99
46756;BME280;32506;52.826;-1.192;2024-01-15T10:52:36;100532.72;;;3.25;59.97
46756;BME280;32506;52.826;-1.192;2024-01-15T10:55:03;100548.88;;;3.46;59.92
46756;BME280;32506;52.826;-1.192;2024-01-15T10:57:30;100548.38;;;3.67;59.95
46756;BME280;32506;52.826;-1.192;2024-01-15T10:59:55;100556.44;;;3.82;59.99
46756;BME280;32506;52.826;-1.192;2024-01-15T11:02:21;100558.06;;;3.92;60.16
46756;BME280;32506;52.826;-1.192;2024-01-15T11:04:47;100548.75;;;4.04;60.23
46756;BME280;32506;52.826;-1.192;2024-01-15T11:07:13;100558.59;;;4.27;60.44
46756;BME280;32506;52.826;-1.192;2024-01-15T11:09:39;100553.84;;;4.53;59.94
46756;BME280;32506;52.826;-1.192;2024-01-15T11:12:10;100556.00;;;4.81;59.60
46756;BME280;32506;52.826;-1.192;2024-01-15T11:14:41;100558.88;;;5.18;59.34
46756;BME280;32506;52.826;-1.192;2024-01-15T11:17:09;100562.00;;;5.60;58.68
46756;BME280;32506;52.826;-1.192;2024-01-15T11:19:36;100553.94;;;6.06;58.16
46756;BME280;32506;52.826;-1.192;2024-01-15T11:22:06;100553.50;;;6.54;56.66
46756;BME280;32506;52.826;-1.192;2024-01-15T11:24:38;100549.44;;;6.95;56.88
46756;BME280;32506;52.826;-1.192;2024-01-15T11:27:04;100551.81;;;7.33;56.86
46756;BME280;32506;52.826;-1.192;2024-01-15T11:29:32;100548.25;;;7.76;56.19
46756;BME280;32506;52.826;-1.192;2024-01-15T11:32:01;100554.00;;;8.14;55.98
46756;BME280;32506;52.826;-1.192;2024-01-15T11:35:04;100540.22;;;8.46;55.03
46756;BME280;32506;52.826;-1.192;2024-01-15T11:40:18;100540.56;;;8.98;54.91
46756;BME280;32506;52.826;-1.192;2024-01-15T11:42:45;100534.81;;;9.28;54.55
46756;BME280;32506;52.826;-1.192;2024-01-15T11:45:10;100544.03;;;9.65;54.02
46756;BME280;32506;52.826;-1.192;2024-01-15T11:50:33;100548.50;;;10.89;52.18
46756;BME280;32506;52.826;-1.192;2024-01-15T11:53:00;100545.31;;;11.56;51.10
46756;BME280;32506;52.826;-1.192;2024-01-15T11:55:28;100547.25;;;12.30;49.85
46756;BME280;32506;52.826;-1.192;2024-01-15T11:57:55;100541.03;;;13.08;48.38
46756;BME280;32506;52.826;-1.192;2024-01-15T12:00:22;100542.13;;;13.90;47.20
46756;BME280;32506;52.826;-1.192;2024-01-15T12:02:49;100543.72;;;14.68;46.05
46756;BME280;32506;52.826;-1.192;2024-01-15T12:05:17;100544.72;;;15.47;44.58
46756;BME280;32506;52.826;-1.192;2024-01-15T12:07:47;100541.41;;;16.18;43.57
46756;BME280;32506;52.826;-1.192;2024-01-15T12:10:20;100545.13;;;16.88;42.66
46756;BME280;32506;52.826;-1.192;2024-01-15T12:15:17;100548.19;;;18.15;40.65
46756;BME280;32506;52.826;-1.192;2024-01-15T12:17:43;100544.31;;;18.69;39.94
46756;BME280;32506;52.826;-1.192;2024-01-15T12:20:09;100547.09;;;19.21;39.14
46756;BME280;32506;52.826;-1.192;2024-01-15T12:22:35;100546.50;;;19.65;38.53
46756;BME280;32506;52.826;-1.192;2024-01-15T12:25:01;100536.91;;;20.04;38.11
46756;BME280;32506;52.826;-1.192;2024-01-15T12:27:26;100537.56;;;20.35;37.26
46756;BME280;32506;52.826;-1.192;2024-01-15T12:29:55;100550.22;;;20.55;37.48
46756;BME280;32506;52.826;-1.192;2024-01-15T12:32:20;100544.75;;;20.66;37.38
46756;BME280;32506;52.826;-1.192;2024-01-15T12:34:49;100555.59;;;20.66;37.73
46756;BME280;32506;52.826;-1.192;2024-01-15T12:37:14;100553.47;;;20.57;38.42
46756;BME280;32506;52.826;-1.192;2024-01-15T12:39:43;100557.06;;;20.48;38.91
46756;BME280;32506;52.826;-1.192;2024-01-15T12:42:08;100546.81;;;20.34;39.06